sensor_id;sensor_type;location;lat;lon;timestamp;temperature;humidity
17984;DHT22;9117;52.420;20.728;2023-03-01T00:01:18;-2.60;24.80
17984;DHT22;9117;52.420;20.728;2023-03-01T00:03:47;-2.60;19.90
17984;DHT22;9117;52.420;20.728;2023-03-01T00:06:15;-2.60;16.40
17984;DHT22;9117;52.420;20.728;2023-03-01T00:08:44;-2.60;27.10
17984;DHT22;9117;52.420;20.728;2023-03-01T00:11:15;-2.50;21.60
17984;DHT22;9117;52.420;20.728;2023-03-01T00:13:45;-2.40;20.80
17984;DHT22;9117;52.420;20.728;2023-03-01T00:16:15;-2.60;24.30
17984;DHT22;9117;52.420;20.728;2023-03-01T00:18:44;-2.60;19.40
17984;DHT22;9117;52.420;20.728;2023-03-01T00:21:12;-2.60;9.60
17984;DHT22;9117;52.420;20.728;2023-03-01T00:23:41;-2.40;7.60
17984;DHT22;9117;52.420;20.728;2023-03-01T00:26:11;-2.00;24.80
17984;DHT22;9117;52.420;20.728;2023-03-01T00:28:42;-2.60;18.70
17984;DHT22;9117;52.420;20.728;2023-03-01T00:31:12;-2.50;26.10
17984;DHT22;9117;52.420;20.728;2023-03-01T00:33:40;-2.50;14.30
17984;DHT22;9117;52.420;20.728;2023-03-01T00:36:10;-2.50;7.40
17984;DHT22;9117;52.420;20.728;2023-03-01T00:38:40;-2.00;11.30
17984;DHT22;9117;52.420;20.728;2023-03-01T00:41:13;-2.50;12.30
17984;DHT22;9117;52.420;20.728;2023-03-01T00:43:44;-2.50;20.70
17984;DHT22;9117;52.420;20.728;2023-03-01T00:46:15;-2.00;28.00
17984;DHT22;9117;52.420;20.728;2023-03-01T00:48:43;-2.50;26.90
17984;DHT22;9117;52.420;20.728;2023-03-01T00:51:13;-2.50;23.10
17984;DHT22;9117;52.420;20.728;2023-03-01T00:53:42;-2.50;29.20
17984;DHT22;9117;52.420;20.728;2023-03-01T00:56:12;-2.40;21.40
17984;DHT22;9117;52.420;20.728;2023-03-01T00:58:42;-2.20;25.90
17984;DHT22;9117;52.420;20.728;2023-03-01T01:01:12;-2.50;22.30
17984;DHT22;9117;52.420;20.728;2023-03-01T01:03:46;-2.50;25.10
17984;DHT22;9117;52.420;20.728;2023-03-01T01:06:16;-2.50;26.70
17984;DHT22;9117;52.420;20.728;2023-03-01T01:08:45;-2.50;15.60
17984;DHT22;9117;52.420;20.728;2023-03-01T01:11:14;-2.50;32.40
17984;DHT22;9117;52.420;20.728;2023-03-01T01:13:45;-2.50;31.10
17984;DHT22;9117;52.420;20.728;2023-03-01T01:16:14;-2.50;34.40
17984;DHT22;9117;52.420;20.728;2023-03-01T01:18:44;-2.30;25.80
17984;DHT22;9117;52.420;20.728;2023-03-01T01:21:14;-2.20;29.80
17984;DHT22;9117;52.420;20.728;2023-03-01T01:23:44;-2.40;38.80
17984;DHT22;9117;52.420;20.728;2023-03-01T01:26:14;-2.40;39.20
17984;DHT22;9117;52.420;20.728;2023-03-01T01:28:44;-2.40;30.80
17984;DHT22;9117;52.420;20.728;2023-03-01T01:31:13;-2.20;36.20
17984;DHT22;9117;52.420;20.728;2023-03-01T01:33:41;-2.40;37.10
17984;DHT22;9117;52.420;20.728;2023-03-01T01:36:10;-2.40;31.00
17984;DHT22;9117;52.420;20.728;2023-03-01T01:38:39;-2.40;25.30
17984;DHT22;9117;52.420;20.728;2023-03-01T01:41:10;-2.00;25.60
17984;DHT22;9117;52.420;20.728;2023-03-01T01:43:40;-2.40;37.70
17984;DHT22;9117;52.420;20.728;2023-03-01T01:46:16;-2.30;35.80
17984;DHT22;9117;52.420;20.728;2023-03-01T01:48:53;-2.50;42.20
17984;DHT22;9117;52.420;20.728;2023-03-01T01:51:25;-2.40;38.40
17984;DHT22;9117;52.420;20.728;2023-03-01T01:53:59;-2.50;43.30
17984;DHT22;9117;52.420;20.728;2023-03-01T01:56:29;-2.50;38.90
17984;DHT22;9117;52.420;20.728;2023-03-01T01:58:58;-2.50;42.30
17984;DHT22;9117;52.420;20.728;2023-03-01T02:01:28;-2.50;49.70
17984;DHT22;9117;52.420;20.728;2023-03-01T02:03:56;-2.50;27.20
17984;DHT22;9117;52.420;20.728;2023-03-01T02:06:28;-2.50;27.50
17984;DHT22;9117;52.420;20.728;2023-03-01T02:08:59;-2.50;28.90
17984;DHT22;9117;52.420;20.728;2023-03-01T02:11:31;-2.40;19.40
17984;DHT22;9117;52.420;20.728;2023-03-01T02:14:00;-2.60;23.00
17984;DHT22;9117;52.420;20.728;2023-03-01T02:16:30;-2.60;27.20
17984;DHT22;9117;52.420;20.728;2023-03-01T02:18:59;-2.60;23.40
17984;DHT22;9117;52.420;20.728;2023-03-01T02:21:36;-2.70;22.70
17984;DHT22;9117;52.420;20.728;2023-03-01T02:24:13;-2.60;19.30
17984;DHT22;9117;52.420;20.728;2023-03-01T02:26:51;-2.60;24.70
17984;DHT22;9117;52.420;20.728;2023-03-01T02:29:22;-2.70;19.80
17984;DHT22;9117;52.420;20.728;2023-03-01T02:31:52;-2.80;19.50
17984;DHT22;9117;52.420;20.728;2023-03-01T02:34:24;-2.80;13.50
17984;DHT22;9117;52.420;20.728;2023-03-01T02:36:56;-2.80;19.60
17984;DHT22;9117;52.420;20.728;2023-03-01T02:39:27;-2.80;20.50
17984;DHT22;9117;52.420;20.728;2023-03-01T02:41:57;-2.80;19.30
17984;DHT22;9117;52.420;20.728;2023-03-01T02:44:27;-2.80;11.80
17984;DHT22;9117;52.420;20.728;2023-03-01T02:46:56;-2.80;15.40
17984;DHT22;9117;52.420;20.728;2023-03-01T02:49:26;-2.60;20.40
17984;DHT22;9117;52.420;20.728;2023-03-01T02:54:52;-2.90;15.30
17984;DHT22;9117;52.420;20.728;2023-03-01T02:57:23;-2.80;9.30
17984;DHT22;9117;52.420;20.728;2023-03-01T02:59:57;-2.90;22.60
17984;DHT22;9117;52.420;20.728;2023-03-01T03:02:29;-2.90;20.30
17984;DHT22;9117;52.420;20.728;2023-03-01T03:05:10;-2.80;14.50
17984;DHT22;9117;52.420;20.728;2023-03-01T03:07:39;-2.90;18.40
17984;DHT22;9117;52.420;20.728;2023-03-01T03:10:11;-2.90;24.00
17984;DHT22;9117;52.420;20.728;2023-03-01T03:12:40;-3.00;22.90
17984;DHT22;9117;52.420;20.728;2023-03-01T03:15:10;-2.90;19.60
17984;DHT22;9117;52.420;20.728;2023-03-01T03:17:41;-2.90;19.80
17984;DHT22;9117;52.420;20.728;2023-03-01T03:20:14;-3.00;17.80
17984;DHT22;9117;52.420;20.728;2023-03-01T03:22:46;-3.00;17.40
17984;DHT22;9117;52.420;20.728;2023-03-01T03:25:15;-2.90;20.70
17984;DHT22;9117;52.420;20.728;2023-03-01T03:27:45;-3.00;18.80
17984;DHT22;9117;52.420;20.728;2023-03-01T03:30:17;-2.70;27.00
17984;DHT22;9117;52.420;20.728;2023-03-01T03:32:47;-3.00;20.70
17984;DHT22;9117;52.420;20.728;2023-03-01T03:35:20;-3.00;18.30
17984;DHT22;9117;52.420;20.728;2023-03-01T03:37:49;-4.00;22.90
17984;DHT22;9117;52.420;20.728;2023-03-01T03:40:31;-2.90;25.40
17984;DHT22;9117;52.420;20.728;2023-03-01T03:42:59;-2.90;33.00
17984;DHT22;9117;52.420;20.728;2023-03-01T03:45:29;-2.90;15.00
17984;DHT22;9117;52.420;20.728;2023-03-01T03:48:00;-2.70;20.70
17984;DHT22;9117;52.420;20.728;2023-03-01T03:50:28;-2.80;25.70
17984;DHT22;9117;52.420;20.728;2023-03-01T03:52:57;-2.70;29.50
17984;DHT22;9117;52.420;20.728;2023-03-01T03:55:25;-2.80;21.70
17984;DHT22;9117;52.420;20.728;2023-03-01T03:57:58;-2.70;33.50
17984;DHT22;9117;52.420;20.728;2023-03-01T04:00:30;-2.80;20.20
17984;DHT22;9117;52.420;20.728;2023-03-01T04:02:58;-2.80;16.90
17984;DHT22;9117;52.420;20.728;2023-03-01T04:05:27;-2.80;23.20
17984;DHT22;9117;52.420;20.728;2023-03-01T04:07:56;-2.50;25.60
17984;DHT22;9117;52.420;20.728;2023-03-01T04:10:30;-2.90;9.20
17984;DHT22;9117;52.420;20.728;2023-03-01T04:12:59;-2.80;8.30
17984;DHT22;9117;52.420;20.728;2023-03-01T04:15:27;-2.80;15.30
17984;DHT22;9117;52.420;20.728;2023-03-01T04:17:57;-2.60;20.50
17984;DHT22;9117;52.420;20.728;2023-03-01T04:20:27;-2.70;17.00
17984;DHT22;9117;52.420;20.728;2023-03-01T04:23:01;-2.80;10.90
17984;DHT22;9117;52.420;20.728;2023-03-01T04:25:38;-2.80;22.50
17984;DHT22;9117;52.420;20.728;2023-03-01T04:28:07;-2.90;13.20
17984;DHT22;9117;52.420;20.728;2023-03-01T04:30:36;-2.80;12.60
17984;DHT22;9117;52.420;20.728;2023-03-01T04:33:07;-2.80;17.20
17984;DHT22;9117;52.420;20.728;2023-03-01T04:35:37;-2.80;18.20
17984;DHT22;9117;52.420;20.728;2023-03-01T04:38:05;-2.80;11.20
17984;DHT22;9117;52.420;20.728;2023-03-01T04:40:34;-2.50;14.10
17984;DHT22;9117;52.420;20.728;2023-03-01T04:43:03;-2.80;16.00
17984;DHT22;9117;52.420;20.728;2023-03-01T04:45:32;-2.80;13.50
17984;DHT22;9117;52.420;20.728;2023-03-01T04:48:03;-2.70;21.30
17984;DHT22;9117;52.420;20.728;2023-03-01T04:50:33;-2.80;25.50
17984;DHT22;9117;52.420;20.728;2023-03-01T04:53:01;-2.60;11.10
17984;DHT22;9117;52.420;20.728;2023-03-01T04:55:29;-2.80;17.70
17984;DHT22;9117;52.420;20.728;2023-03-01T04:57:58;-2.70;16.90
17984;DHT22;9117;52.420;20.728;2023-03-01T05:00:26;-2.70;7.50
17984;DHT22;9117;52.420;20.728;2023-03-01T05:02:56;-2.70;9.00
17984;DHT22;9117;52.420;20.728;2023-03-01T05:05:27;-2.70;10.10
17984;DHT22;9117;52.420;20.728;2023-03-01T05:07:58;-2.40;9.30
17984;DHT22;9117;52.420;20.728;2023-03-01T05:10:29;-2.70;5.90
17984;DHT22;9117;52.420;20.728;2023-03-01T05:12:58;-2.40;7.70
17984;DHT22;9117;52.420;20.728;2023-03-01T05:15:29;-2.70;8.00
17984;DHT22;9117;52.420;20.728;2023-03-01T05:17:59;-2.70;16.50
17984;DHT22;9117;52.420;20.728;2023-03-01T05:20:28;-2.70;10.00
17984;DHT22;9117;52.420;20.728;2023-03-01T05:22:59;-2.70;8.80
17984;DHT22;9117;52.420;20.728;2023-03-01T05:25:33;-2.60;12.50
17984;DHT22;9117;52.420;20.728;2023-03-01T05:28:01;-2.70;5.30
17984;DHT22;9117;52.420;20.728;2023-03-01T05:30:31;-2.50;8.70
17984;DHT22;9117;52.420;20.728;2023-03-01T05:33:01;-2.70;13.10
17984;DHT22;9117;52.420;20.728;2023-03-01T05:35:32;-2.70;13.20
17984;DHT22;9117;52.420;20.728;2023-03-01T05:38:01;-2.80;14.90
17984;DHT22;9117;52.420;20.728;2023-03-01T05:40:29;-2.80;11.60
17984;DHT22;9117;52.420;20.728;2023-03-01T05:42:58;-2.80;4.90
17984;DHT22;9117;52.420;20.728;2023-03-01T05:45:26;-2.90;14.10
17984;DHT22;9117;52.420;20.728;2023-03-01T05:47:55;-2.80;7.10
17984;DHT22;9117;52.420;20.728;2023-03-01T05:50:25;-2.80;10.00
17984;DHT22;9117;52.420;20.728;2023-03-01T05:52:58;-2.80;16.30
17984;DHT22;9117;52.420;20.728;2023-03-01T05:55:29;-2.80;13.40
17984;DHT22;9117;52.420;20.728;2023-03-01T05:57:59;-2.80;13.10
17984;DHT22;9117;52.420;20.728;2023-03-01T06:00:28;-2.70;12.50
17984;DHT22;9117;52.420;20.728;2023-03-01T06:02:58;-2.70;7.20
17984;DHT22;9117;52.420;20.728;2023-03-01T06:05:27;-2.70;13.70
17984;DHT22;9117;52.420;20.728;2023-03-01T06:07:57;-2.70;10.70
17984;DHT22;9117;52.420;20.728;2023-03-01T06:10:27;-2.60;8.00
17984;DHT22;9117;52.420;20.728;2023-03-01T06:12:56;-2.60;8.10
17984;DHT22;9117;52.420;20.728;2023-03-01T06:15:25;-2.30;3.10
17984;DHT22;9117;52.420;20.728;2023-03-01T06:17:54;-2.60;10.40
17984;DHT22;9117;52.420;20.728;2023-03-01T06:20:27;-2.50;24.70
17984;DHT22;9117;52.420;20.728;2023-03-01T06:22:56;-2.50;18.20
17984;DHT22;9117;52.420;20.728;2023-03-01T06:25:25;-2.40;26.50
17984;DHT22;9117;52.420;20.728;2023-03-01T06:27:55;-2.40;12.60
17984;DHT22;9117;52.420;20.728;2023-03-01T06:30:25;-2.40;13.50
17984;DHT22;9117;52.420;20.728;2023-03-01T06:32:54;-2.30;22.00
17984;DHT22;9117;52.420;20.728;2023-03-01T06:35:28;-2.30;17.80
17984;DHT22;9117;52.420;20.728;2023-03-01T06:37:59;-2.30;22.90
17984;DHT22;9117;52.420;20.728;2023-03-01T06:40:27;-2.30;20.50
17984;DHT22;9117;52.420;20.728;2023-03-01T06:42:57;-2.20;20.70
17984;DHT22;9117;52.420;20.728;2023-03-01T06:45:26;-2.20;23.90
17984;DHT22;9117;52.420;20.728;2023-03-01T06:48:01;-2.20;25.20
17984;DHT22;9117;52.420;20.728;2023-03-01T06:50:30;-2.00;28.40
17984;DHT22;9117;52.420;20.728;2023-03-01T06:52:58;-2.20;28.00
17984;DHT22;9117;52.420;20.728;2023-03-01T06:55:26;-1.80;29.90
17984;DHT22;9117;52.420;20.728;2023-03-01T06:57:56;-2.10;26.10
17984;DHT22;9117;52.420;20.728;2023-03-01T07:00:25;-2.00;31.70
17984;DHT22;9117;52.420;20.728;2023-03-01T07:02:53;-2.00;21.40
17984;DHT22;9117;52.420;20.728;2023-03-01T07:05:22;-2.00;17.80
17984;DHT22;9117;52.420;20.728;2023-03-01T07:07:50;-2.00;24.90
17984;DHT22;9117;52.420;20.728;2023-03-01T07:10:18;-1.90;10.10
17984;DHT22;9117;52.420;20.728;2023-03-01T07:12:46;-1.90;13.60
17984;DHT22;9117;52.420;20.728;2023-03-01T07:15:16;-1.80;17.10
17984;DHT22;9117;52.420;20.728;2023-03-01T07:17:44;-1.80;7.10
17984;DHT22;9117;52.420;20.728;2023-03-01T07:20:14;-2.60;11.40
17984;DHT22;9117;52.420;20.728;2023-03-01T07:22:43;-1.70;12.40
17984;DHT22;9117;52.420;20.728;2023-03-01T07:25:11;-1.70;14.10
17984;DHT22;9117;52.420;20.728;2023-03-01T07:27:39;-0.60;26.20
17984;DHT22;9117;52.420;20.728;2023-03-01T07:30:08;-1.50;12.30
17984;DHT22;9117;52.420;20.728;2023-03-01T07:32:38;-1.50;23.40
17984;DHT22;9117;52.420;20.728;2023-03-01T07:35:07;-1.30;14.50
17984;DHT22;9117;52.420;20.728;2023-03-01T07:37:35;-1.40;23.00
17984;DHT22;9117;52.420;20.728;2023-03-01T07:40:04;-1.30;19.70
17984;DHT22;9117;52.420;20.728;2023-03-01T07:42:33;-1.20;12.60
17984;DHT22;9117;52.420;20.728;2023-03-01T07:45:01;-1.20;18.90
17984;DHT22;9117;52.420;20.728;2023-03-01T07:47:29;-1.10;18.30
17984;DHT22;9117;52.420;20.728;2023-03-01T07:49:59;-1.00;22.10
17984;DHT22;9117;52.420;20.728;2023-03-01T07:52:28;-0.90;24.10
17984;DHT22;9117;52.420;20.728;2023-03-01T07:54:56;-0.70;10.60
17984;DHT22;9117;52.420;20.728;2023-03-01T07:57:25;-0.70;12.20
17984;DHT22;9117;52.420;20.728;2023-03-01T07:59:53;-0.50;18.20
17984;DHT22;9117;52.420;20.728;2023-03-01T08:02:21;-0.40;12.00
17984;DHT22;9117;52.420;20.728;2023-03-01T08:04:49;-0.20;17.20
17984;DHT22;9117;52.420;20.728;2023-03-01T08:07:19;-0.10;17.20
17984;DHT22;9117;52.420;20.728;2023-03-01T08:09:47;0.00;27.90
17984;DHT22;9117;52.420;20.728;2023-03-01T08:12:15;0.00;15.70
17984;DHT22;9117;52.420;20.728;2023-03-01T08:14:44;0.00;21.00
17984;DHT22;9117;52.420;20.728;2023-03-01T08:17:13;0.20;24.20
17984;DHT22;9117;52.420;20.728;2023-03-01T08:19:42;0.30;12.90
17984;DHT22;9117;52.420;20.728;2023-03-01T08:22:11;0.50;12.40
17984;DHT22;9117;52.420;20.728;2023-03-01T08:24:41;0.50;16.10
17984;DHT22;9117;52.420;20.728;2023-03-01T08:27:09;0.50;24.80
17984;DHT22;9117;52.420;20.728;2023-03-01T08:29:38;0.50;21.90
17984;DHT22;9117;52.420;20.728;2023-03-01T08:32:07;0.60;18.10
17984;DHT22;9117;52.420;20.728;2023-03-01T08:34:35;0.80;30.90
17984;DHT22;9117;52.420;20.728;2023-03-01T08:37:03;0.90;19.80
17984;DHT22;9117;52.420;20.728;2023-03-01T08:39:32;0.90;26.10
17984;DHT22;9117;52.420;20.728;2023-03-01T08:42:01;0.90;27.50
17984;DHT22;9117;52.420;20.728;2023-03-01T08:44:29;1.00;22.50
17984;DHT22;9117;52.420;20.728;2023-03-01T08:46:58;1.20;24.70
17984;DHT22;9117;52.420;20.728;2023-03-01T08:49:26;1.30;11.20
17984;DHT22;9117;52.420;20.728;2023-03-01T08:51:54;1.30;12.40
17984;DHT22;9117;52.420;20.728;2023-03-01T08:54:23;1.30;19.30
17984;DHT22;9117;52.420;20.728;2023-03-01T08:56:51;1.40;24.90
17984;DHT22;9117;52.420;20.728;2023-03-01T08:59:20;1.40;21.00
17984;DHT22;9117;52.420;20.728;2023-03-01T09:01:49;1.50;19.10
17984;DHT22;9117;52.420;20.728;2023-03-01T09:04:17;1.50;19.00
17984;DHT22;9117;52.420;20.728;2023-03-01T09:06:45;1.50;17.50
17984;DHT22;9117;52.420;20.728;2023-03-01T09:09:14;1.60;29.70
17984;DHT22;9117;52.420;20.728;2023-03-01T09:11:44;1.70;27.80
17984;DHT22;9117;52.420;20.728;2023-03-01T09:14:13;1.90;23.20
17984;DHT22;9117;52.420;20.728;2023-03-01T09:16:43;1.80;24.00
17984;DHT22;9117;52.420;20.728;2023-03-01T09:19:12;1.80;29.80
17984;DHT22;9117;52.420;20.728;2023-03-01T09:21:40;1.80;22.10
17984;DHT22;9117;52.420;20.728;2023-03-01T09:24:14;2.00;29.40
17984;DHT22;9117;52.420;20.728;2023-03-01T09:26:43;2.10;24.80
17984;DHT22;9117;52.420;20.728;2023-03-01T09:29:15;2.10;38.70
17984;DHT22;9117;52.420;20.728;2023-03-01T09:31:45;2.20;39.30
17984;DHT22;9117;52.420;20.728;2023-03-01T09:34:13;2.20;33.90
17984;DHT22;9117;52.420;20.728;2023-03-01T09:36:42;2.00;35.90
17984;DHT22;9117;52.420;20.728;2023-03-01T09:39:11;2.10;39.00
17984;DHT22;9117;52.420;20.728;2023-03-01T09:41:46;2.20;38.50
17984;DHT22;9117;52.420;20.728;2023-03-01T09:44:29;2.30;36.10
17984;DHT22;9117;52.420;20.728;2023-03-01T09:47:00;2.40;32.10
17984;DHT22;9117;52.420;20.728;2023-03-01T09:49:30;2.40;34.90
17984;DHT22;9117;52.420;20.728;2023-03-01T09:52:06;2.40;29.20
17984;DHT22;9117;52.420;20.728;2023-03-01T09:54:37;2.40;29.70
17984;DHT22;9117;52.420;20.728;2023-03-01T09:57:13;2.60;28.80
17984;DHT22;9117;52.420;20.728;2023-03-01T09:59:54;2.70;32.10
17984;DHT22;9117;52.420;20.728;2023-03-01T10:02:29;2.60;30.00
17984;DHT22;9117;52.420;20.728;2023-03-01T10:05:09;2.80;31.00
17984;DHT22;9117;52.420;20.728;2023-03-01T10:07:45;2.60;30.50
17984;DHT22;9117;52.420;20.728;2023-03-01T10:10:26;2.80;28.70
17984;DHT22;9117;52.420;20.728;2023-03-01T10:12:56;2.90;26.50
17984;DHT22;9117;52.420;20.728;2023-03-01T10:15:30;3.00;19.70
17984;DHT22;9117;52.420;20.728;2023-03-01T10:18:06;3.00;27.80
17984;DHT22;9117;52.420;20.728;2023-03-01T10:20:44;3.00;28.70
17984;DHT22;9117;52.420;20.728;2023-03-01T10:23:14;3.00;27.30
17984;DHT22;9117;52.420;20.728;2023-03-01T10:25:50;3.30;29.20
17984;DHT22;9117;52.420;20.728;2023-03-01T10:28:26;3.40;23.80
17984;DHT22;9117;52.420;20.728;2023-03-01T10:30:58;3.30;30.90
17984;DHT22;9117;52.420;20.728;2023-03-01T10:33:30;3.30;24.70
17984;DHT22;9117;52.420;20.728;2023-03-01T10:36:00;3.20;22.70
17984;DHT22;9117;52.420;20.728;2023-03-01T10:38:30;3.30;27.50
17984;DHT22;9117;52.420;20.728;2023-03-01T10:41:06;3.60;27.30
17984;DHT22;9117;52.420;20.728;2023-03-01T10:43:44;3.60;30.60
17984;DHT22;9117;52.420;20.728;2023-03-01T10:46:23;3.70;32.30
17984;DHT22;9117;52.420;20.728;2023-03-01T10:49:14;3.90;29.10
17984;DHT22;9117;52.420;20.728;2023-03-01T10:51:44;4.10;41.40
17984;DHT22;9117;52.420;20.728;2023-03-01T10:54:17;4.30;28.00
17984;DHT22;9117;52.420;20.728;2023-03-01T10:56:49;4.40;28.90
17984;DHT22;9117;52.420;20.728;2023-03-01T10:59:26;4.60;36.00
17984;DHT22;9117;52.420;20.728;2023-03-01T11:02:15;4.90;32.80
17984;DHT22;9117;52.420;20.728;2023-03-01T11:05:13;4.40;34.10
17984;DHT22;9117;52.420;20.728;2023-03-01T11:07:48;4.40;32.80
17984;DHT22;9117;52.420;20.728;2023-03-01T11:10:19;4.60;35.80
17984;DHT22;9117;52.420;20.728;2023-03-01T11:12:47;5.20;31.60
17984;DHT22;9117;52.420;20.728;2023-03-01T11:15:22;5.40;36.50
17984;DHT22;9117;52.420;20.728;2023-03-01T11:17:52;5.20;34.70
17984;DHT22;9117;52.420;20.728;2023-03-01T11:20:36;5.30;33.50
17984;DHT22;9117;52.420;20.728;2023-03-01T11:23:09;5.20;34.20
17984;DHT22;9117;52.420;20.728;2023-03-01T11:25:40;5.60;35.50
17984;DHT22;9117;52.420;20.728;2023-03-01T11:28:13;5.70;35.90
17984;DHT22;9117;52.420;20.728;2023-03-01T11:30:46;5.70;41.50
17984;DHT22;9117;52.420;20.728;2023-03-01T11:33:37;5.70;34.90
17984;DHT22;9117;52.420;20.728;2023-03-01T11:36:16;5.70;46.00
17984;DHT22;9117;52.420;20.728;2023-03-01T11:38:48;6.10;52.00
17984;DHT22;9117;52.420;20.728;2023-03-01T11:41:18;6.50;47.40
17984;DHT22;9117;52.420;20.728;2023-03-01T11:43:52;6.50;53.80
17984;DHT22;9117;52.420;20.728;2023-03-01T11:46:49;6.40;50.50
17984;DHT22;9117;52.420;20.728;2023-03-01T11:49:40;6.40;51.90
17984;DHT22;9117;52.420;20.728;2023-03-01T11:52:20;6.80;54.30
17984;DHT22;9117;52.420;20.728;2023-03-01T11:55:02;6.80;54.10
17984;DHT22;9117;52.420;20.728;2023-03-01T11:57:47;6.60;50.70
17984;DHT22;9117;52.420;20.728;2023-03-01T12:00:43;7.00;47.90
17984;DHT22;9117;52.420;20.728;2023-03-01T12:03:30;7.30;46.70
17984;DHT22;9117;52.420;20.728;2023-03-01T12:06:27;6.80;45.10
17984;DHT22;9117;52.420;20.728;2023-03-01T12:09:14;7.00;45.30
17984;DHT22;9117;52.420;20.728;2023-03-01T12:12:01;7.10;51.30
17984;DHT22;9117;52.420;20.728;2023-03-01T12:14:49;7.10;53.80
17984;DHT22;9117;52.420;20.728;2023-03-01T12:17:38;6.90;52.20
17984;DHT22;9117;52.420;20.728;2023-03-01T12:20:24;6.70;52.20
17984;DHT22;9117;52.420;20.728;2023-03-01T12:25:53;6.40;52.40
17984;DHT22;9117;52.420;20.728;2023-03-01T12:28:41;6.50;55.70
17984;DHT22;9117;52.420;20.728;2023-03-01T12:34:34;6.50;54.90
17984;DHT22;9117;52.420;20.728;2023-03-01T12:43:17;6.60;47.40
17984;DHT22;9117;52.420;20.728;2023-03-01T12:45:58;6.70;58.90
17984;DHT22;9117;52.420;20.728;2023-03-01T12:48:37;6.90;55.60
17984;DHT22;9117;52.420;20.728;2023-03-01T12:51:11;6.90;56.50
17984;DHT22;9117;52.420;20.728;2023-03-01T12:53:44;7.00;57.50
17984;DHT22;9117;52.420;20.728;2023-03-01T12:56:17;7.40;54.60
17984;DHT22;9117;52.420;20.728;2023-03-01T12:58:55;7.50;54.90
17984;DHT22;9117;52.420;20.728;2023-03-01T13:01:36;7.40;45.20
17984;DHT22;9117;52.420;20.728;2023-03-01T13:04:15;7.20;55.00
17984;DHT22;9117;52.420;20.728;2023-03-01T13:06:54;7.00;64.50
17984;DHT22;9117;52.420;20.728;2023-03-01T13:09:30;6.90;54.40
17984;DHT22;9117;52.420;20.728;2023-03-01T13:11:59;7.10;49.80
17984;DHT22;9117;52.420;20.728;2023-03-01T13:14:45;7.10;55.80
17984;DHT22;9117;52.420;20.728;2023-03-01T13:17:32;7.00;60.40
17984;DHT22;9117;52.420;20.728;2023-03-01T13:20:00;7.50;60.40
17984;DHT22;9117;52.420;20.728;2023-03-01T13:22:32;7.80;54.60
17984;DHT22;9117;52.420;20.728;2023-03-01T13:25:15;8.10;56.20
17984;DHT22;9117;52.420;20.728;2023-03-01T13:27:45;8.80;62.90
17984;DHT22;9117;52.420;20.728;2023-03-01T13:30:43;9.00;57.70
17984;DHT22;9117;52.420;20.728;2023-03-01T13:33:44;8.60;66.00
17984;DHT22;9117;52.420;20.728;2023-03-01T13:36:46;8.30;66.80
17984;DHT22;9117;52.420;20.728;2023-03-01T13:39:30;8.10;66.40
17984;DHT22;9117;52.420;20.728;2023-03-01T13:42:01;8.00;60.50
17984;DHT22;9117;52.420;20.728;2023-03-01T13:44:33;7.60;67.50
17984;DHT22;9117;52.420;20.728;2023-03-01T13:47:17;7.60;58.80
17984;DHT22;9117;52.420;20.728;2023-03-01T13:49:48;7.40;64.60
17984;DHT22;9117;52.420;20.728;2023-03-01T13:52:38;7.20;57.30
17984;DHT22;9117;52.420;20.728;2023-03-01T13:55:17;7.10;55.40
17984;DHT22;9117;52.420;20.728;2023-03-01T13:57:50;7.10;58.90
17984;DHT22;9117;52.420;20.728;2023-03-01T14:00:35;7.30;56.00
17984;DHT22;9117;52.420;20.728;2023-03-01T14:03:10;7.10;48.30
17984;DHT22;9117;52.420;20.728;2023-03-01T14:05:40;6.90;56.00
17984;DHT22;9117;52.420;20.728;2023-03-01T14:08:24;6.70;52.00
17984;DHT22;9117;52.420;20.728;2023-03-01T14:11:20;7.20;57.90
17984;DHT22;9117;52.420;20.728;2023-03-01T14:14:05;8.20;56.00
17984;DHT22;9117;52.420;20.728;2023-03-01T14:16:42;8.40;60.90
17984;DHT22;9117;52.420;20.728;2023-03-01T14:19:17;8.30;57.10
17984;DHT22;9117;52.420;20.728;2023-03-01T14:22:02;8.90;62.30
17984;DHT22;9117;52.420;20.728;2023-03-01T14:24:34;9.10;61.50
17984;DHT22;9117;52.420;20.728;2023-03-01T14:27:03;9.70;56.90
17984;DHT22;9117;52.420;20.728;2023-03-01T14:29:35;9.70;52.90
17984;DHT22;9117;52.420;20.728;2023-03-01T14:32:11;10.50;60.80
17984;DHT22;9117;52.420;20.728;2023-03-01T14:34:46;10.40;67.60
17984;DHT22;9117;52.420;20.728;2023-03-01T14:37:21;10.30;75.20
17984;DHT22;9117;52.420;20.728;2023-03-01T14:39:49;9.90;73.20
17984;DHT22;9117;52.420;20.728;2023-03-01T14:42:18;9.50;71.90
17984;DHT22;9117;52.420;20.728;2023-03-01T14:44:48;9.70;78.60
17984;DHT22;9117;52.420;20.728;2023-03-01T14:47:25;9.90;74.00
17984;DHT22;9117;52.420;20.728;2023-03-01T14:49:58;9.90;73.10
17984;DHT22;9117;52.420;20.728;2023-03-01T14:52:33;9.70;72.30
17984;DHT22;9117;52.420;20.728;2023-03-01T14:55:05;9.80;73.80
17984;DHT22;9117;52.420;20.728;2023-03-01T14:57:34;9.90;73.00
17984;DHT22;9117;52.420;20.728;2023-03-01T15:00:05;9.40;71.70
17984;DHT22;9117;52.420;20.728;2023-03-01T15:02:34;8.90;75.90
17984;DHT22;9117;52.420;20.728;2023-03-01T15:05:05;9.10;74.20
17984;DHT22;9117;52.420;20.728;2023-03-01T15:07:37;8.90;76.40
17984;DHT22;9117;52.420;20.728;2023-03-01T15:10:12;8.80;75.60
17984;DHT22;9117;52.420;20.728;2023-03-01T15:12:42;9.00;80.40
17984;DHT22;9117;52.420;20.728;2023-03-01T15:15:33;8.90;74.50
17984;DHT22;9117;52.420;20.728;2023-03-01T15:18:04;9.20;76.30
17984;DHT22;9117;52.420;20.728;2023-03-01T15:20:34;8.80;78.60
17984;DHT22;9117;52.420;20.728;2023-03-01T15:23:03;8.70;77.00
17984;DHT22;9117;52.420;20.728;2023-03-01T15:25:32;8.50;79.00
17984;DHT22;9117;52.420;20.728;2023-03-01T15:28:02;8.30;85.30
17984;DHT22;9117;52.420;20.728;2023-03-01T15:30:33;8.10;77.70
17984;DHT22;9117;52.420;20.728;2023-03-01T15:33:27;7.90;72.80
17984;DHT22;9117;52.420;20.728;2023-03-01T15:35:58;8.00;74.80
17984;DHT22;9117;52.420;20.728;2023-03-01T15:38:30;7.90;79.40
17984;DHT22;9117;52.420;20.728;2023-03-01T15:41:00;7.70;80.00
17984;DHT22;9117;52.420;20.728;2023-03-01T15:43:40;7.70;78.00
17984;DHT22;9117;52.420;20.728;2023-03-01T15:46:21;7.20;81.70
17984;DHT22;9117;52.420;20.728;2023-03-01T15:48:54;7.10;80.60
17984;DHT22;9117;52.420;20.728;2023-03-01T15:51:29;7.10;78.80
17984;DHT22;9117;52.420;20.728;2023-03-01T15:54:00;6.90;75.20
17984;DHT22;9117;52.420;20.728;2023-03-01T15:56:28;6.80;78.00
17984;DHT22;9117;52.420;20.728;2023-03-01T15:59:01;6.80;76.70
17984;DHT22;9117;52.420;20.728;2023-03-01T16:01:30;6.60;77.90
17984;DHT22;9117;52.420;20.728;2023-03-01T16:04:01;6.60;77.20
17984;DHT22;9117;52.420;20.728;2023-03-01T16:06:30;6.50;76.90
17984;DHT22;9117;52.420;20.728;2023-03-01T16:08:59;6.50;74.70
17984;DHT22;9117;52.420;20.728;2023-03-01T16:11:29;6.30;77.80
17984;DHT22;9117;52.420;20.728;2023-03-01T16:13:59;6.20;75.80
17984;DHT22;9117;52.420;20.728;2023-03-01T16:16:27;6.10;68.30
17984;DHT22;9117;52.420;20.728;2023-03-01T16:18:57;6.00;68.20
17984;DHT22;9117;52.420;20.728;2023-03-01T16:21:26;5.90;65.50
17984;DHT22;9117;52.420;20.728;2023-03-01T16:23:55;5.80;65.00
17984;DHT22;9117;52.420;20.728;2023-03-01T16:26:24;5.60;58.00
17984;DHT22;9117;52.420;20.728;2023-03-01T16:28:54;5.50;51.40